Latest Weather Observations for Mornington Island Airport

IDQ60801

Issued at 8:03 am EST Saturday 25 June 2016 (issued every 30 minutes, with the page automatically refreshed every 10 minutes)

About weather observations | Map of weather stations | Latest weather observations for QLD | Other Formats
Station Details ID: 029182 Name: MORNINGTON ISLAND AIRPORT Lat: -16.66 Lon: 139.17 Height: 9.0 m
Data from the previous 72 hours. | See also: Recent months at Mornington Island Airport
Date/Time
EST
Temp
°C
App
Temp
°C
Dew
Point
°C
Rel
Hum
%
Delta-T
°C
Wind Press
QNH
hPa
Press
MSL
hPa
Rain since
9am
mm
Dir  Spd
km/h
Gust
km/h
Spd
kts
Gust
kts
25/08:00am 21.2 18.1 14.6 66 3.9 SSE 24 37 13 20 1015.6 1015.5 0.0
25/07:30am 21.4 18.5 15.0 67 3.8 SE 24 39 13 21 1015.4 1015.3 0.0
25/07:00am 21.6 18.6 14.7 65 4.1 SSE 24 37 13 20 1015.1 1015.0 0.0
25/06:30am 21.7 18.7 14.8 65 4.1 SE 24 39 13 21 1014.9 1014.8 0.0
25/06:00am 21.9 19.5 15.3 66 3.9 SE 22 35 12 19 1014.8 1014.7 0.0
25/05:30am 22.2 19.2 14.8 63 4.4 SE 24 37 13 20 1014.8 1014.7 0.0
25/05:00am 22.3 20.3 15.6 66 4.0 SE 20 35 11 19 1014.6 1014.5 0.0
25/04:30am 22.6 20.7 15.7 65 4.1 SE 20 35 11 19 1014.2 1014.1 0.0
25/04:00am 23.0 21.2 16.1 65 4.2 SE 20 33 11 18 1013.9 1013.8 0.0
25/03:30am 23.0 21.3 16.3 66 4.1 SE 20 32 11 17 1013.9 1013.8 0.0
25/03:00am 23.2 21.5 16.3 65 4.2 SE 20 33 11 18 1014.0 1013.9 0.0
25/02:30am 23.4 21.9 16.7 66 4.1 SE 20 33 11 18 1014.0 1013.9 0.0
25/02:00am 23.7 21.7 16.5 64 4.4 SE 22 32 12 17 1014.1 1014.0 0.0
25/01:30am 23.9 22.8 17.2 66 4.1 SE 19 35 10 19 1014.3 1014.2 0.0
25/01:00am 24.0 22.8 17.0 65 4.3 SE 19 28 10 15 1014.3 1014.2 0.0
25/12:30am 24.3 22.5 16.0 60 5.0 SE 20 28 11 15 1014.3 1014.2 0.0
25/12:00am 24.5 22.7 16.0 59 5.2 SE 20 28 11 15 1014.4 1014.3 0.0
 
Date/Time
EST
Temp
°C
App
Temp
°C
Dew
Point
°C
Rel
Hum
%
Delta-T
°C
Wind Press
QNH
hPa
Press
MSL
hPa
Rain since
9am
mm
Dir  Spd
km/h
Gust
km/h
Spd
kts
Gust
kts
24/11:30pm 25.0 22.9 15.3 55 5.8 SE 20 30 11 16 1014.7 1014.6 0.0
24/11:00pm 24.6 23.2 15.5 57 5.5 SE 17 24 9 13 1014.8 1014.7 0.0
24/10:30pm 21.9 22.6 17.9 78 2.5 SSE 11 17 6 9 1014.8 1014.7 0.0
24/10:00pm 20.6 21.5 17.6 83 1.8 SE 9 13 5 7 1014.6 1014.5 0.0
24/09:30pm 20.1 20.6 16.5 80 2.2 SE 9 13 5 7 1014.4 1014.3 0.0
24/09:00pm 20.0 19.9 15.0 73 2.9 SE 9 9 5 5 1014.2 1014.1 0.0
24/08:30pm 21.0 20.9 13.9 64 4.1 ESE 7 9 4 5 1014.1 1014.0 0.0
24/08:00pm 22.2 22.1 13.8 59 4.9 ESE 7 9 4 5 1014.0 1013.9 0.0
24/07:30pm 22.7 21.7 12.3 52 5.9 ESE 9 11 5 6 1013.7 1013.6 0.0
24/07:00pm 23.7 22.8 12.7 50 6.3 ESE 9 11 5 6 1013.5 1013.4 0.0
24/06:30pm 24.5 23.3 11.5 44 7.3 ESE 9 11 5 6 1013.2 1013.1 0.0
24/06:00pm 26.0 24.4 11.4 40 8.3 ESE 11 15 6 8 1013.1 1013.0 0.0
24/05:30pm 27.0 25.7 12.6 41 8.4 SE 11 13 6 7 1012.9 1012.8 0.0
24/05:00pm 28.1 26.1 10.3 33 10.0 SE 11 17 6 9 1012.6 1012.5 0.0
24/04:30pm 29.0 25.7 8.1 27 11.4 ESE 15 20 8 11 1012.6 1012.5 0.0
24/04:00pm 29.1 25.2 8.7 28 11.2 ESE 19 24 10 13 1012.7 1012.6 0.0
24/03:30pm 29.1 25.4 9.3 29 11.0 ESE 19 26 10 14 1012.8 1012.7 0.0
24/03:00pm 29.0 25.6 10.6 32 10.5 ESE 19 26 10 14 1012.9 1012.8 0.0
24/02:30pm 29.0 25.7 11.6 34 10.0 ESE 20 28 11 15 1013.0 1012.9 0.0
24/02:00pm 29.2 26.2 12.6 36 9.7 ESE 20 30 11 16 1013.4 1013.3 0.0
24/01:30pm 28.7 25.6 12.2 36 9.6 SE 20 32 11 17 1013.7 1013.6 0.0
24/01:00pm 28.5 25.7 13.2 39 9.0 SE 20 30 11 16 1014.1 1014.0 0.0
24/12:30pm 28.2 25.4 12.5 37 9.2 SE 19 28 10 15 1014.5 1014.4 0.0
24/12:00pm 27.6 25.3 15.6 48 7.3 SE 22 30 12 16 1014.8 1014.7 0.0
24/11:30am 27.5 26.6 15.8 48 7.2 SE 15 24 8 13 1015.2 1015.1 0.0
24/11:00am 25.4 23.6 15.4 54 6.0 SE 19 26 10 14 1015.4 1015.3 0.0
24/10:30am 25.0 24.2 17.0 61 5.0 SSE 17 26 9 14 1015.4 1015.3 0.0
24/10:00am 23.9 23.7 18.5 72 3.4 SSE 17 26 9 14 1015.4 1015.3 0.0
24/09:30am 24.1 23.4 18.3 70 3.7 SE 19 28 10 15 1015.3 1015.2 0.0
24/09:00am 23.9 24.6 18.8 73 3.2 SE 13 22 7 12 1015.0 1014.9 0.0
24/08:30am 23.2 23.8 18.7 76 2.8 SE 13 20 7 11 1014.8 1014.7 0.0
24/08:00am 21.4 22.9 19.0 86 1.5 SE 9 13 5 7 1014.4 1014.3 0.0
24/07:30am 20.6 22.4 18.7 89 1.2 S 7 11 4 6 1014.1 1014.0 0.0
24/07:00am 20.1 21.4 18.4 90 1.1 SSE 9 11 5 6 1013.7 1013.6 0.0
24/06:30am 20.3 21.6 18.4 89 1.2 S 9 17 5 9 1013.5 1013.4 0.0
24/06:00am 20.1 21.7 19.1 94 0.6 S 9 15 5 8 1013.0 1012.9 0.0
24/05:30am 19.5 21.5 18.8 96 0.4 SSW 6 9 3 5 1012.6 1012.5 0.0
24/05:00am 18.9 21.7 17.9 94 0.6 CALM 0 2 0 1 1012.2 1012.1 0.0
24/04:30am 18.4 19.2 16.4 88 1.2 SW 7 9 4 5 1012.2 1012.1 0.0
24/04:00am 19.1 20.2 16.7 86 1.4 SW 6 7 3 4 1012.1 1012.0 0.0
24/03:30am 19.2 19.9 16.2 83 1.8 SSW 7 9 4 5 1012.1 1012.0 0.0
24/03:00am 19.2 20.1 16.2 83 1.8 S 6 7 3 4 1012.2 1012.1 0.0
24/02:30am 19.4 20.3 16.6 84 1.7 SE 7 9 4 5 1012.4 1012.3 0.0
24/02:00am 19.5 20.1 16.7 84 1.7 SSE 9 11 5 6 1012.8 1012.7 0.0
24/01:30am 19.6 20.4 16.4 82 1.9 ESE 7 11 4 6 1013.1 1013.0 0.0
24/01:00am 20.0 20.9 16.6 81 2.1 E 7 9 4 5 1013.2 1013.1 0.0
24/12:30am 19.2 19.2 15.1 77 2.4 ESE 9 11 5 6 1013.1 1013.0 0.0
24/12:00am 20.6 21.2 15.8 74 2.9 ENE 7 9 4 5 1013.1 1013.0 0.0
 
Date/Time
EST
Temp
°C
App
Temp
°C
Dew
Point
°C
Rel
Hum
%
Delta-T
°C
Wind Press
QNH
hPa
Press
MSL
hPa
Rain since
9am
mm
Dir  Spd
km/h
Gust
km/h
Spd
kts
Gust
kts
23/11:30pm 20.4 20.5 15.4 73 3.0 NE 9 13 5 7 1013.0 1012.9 0.0
23/11:00pm 21.1 21.6 15.0 68 3.6 NE 6 9 3 5 1013.3 1013.2 0.0
23/10:30pm 21.2 21.2 15.1 68 3.6 NNE 9 11 5 6 1013.4 1013.3 0.0
23/10:00pm 21.4 21.8 14.8 66 3.9 NE 6 7 3 4 1013.2 1013.1 0.0
23/09:30pm 21.8 21.8 15.2 66 3.9 NE 9 11 5 6 1013.1 1013.0 0.0
23/09:00pm 21.8 21.6 15.6 68 3.7 NE 11 13 6 7 1013.1 1013.0 0.0
23/08:30pm 21.8 21.7 16.1 70 3.4 NE 11 13 6 7 1012.8 1012.7 0.0
23/08:00pm 22.5 22.3 15.6 65 4.1 ENE 11 13 6 7 1012.5 1012.4 0.0
23/07:30pm 23.1 23.2 15.4 62 4.6 E 9 11 5 6 1012.2 1012.1 0.0
23/07:00pm 23.7 23.6 14.9 57 5.2 E 9 11 5 6 1011.7 1011.6 0.0
23/06:30pm 24.6 24.6 15.2 55 5.6 ESE 9 11 5 6 1011.4 1011.3 0.0
23/06:00pm 25.7 26.5 16.3 56 5.8 SE 7 9 4 5 1011.1 1011.0 0.0
23/05:30pm 27.2 26.5 14.2 44 7.8 ESE 11 15 6 8 1010.6 1010.5 0.0
23/05:00pm 27.5 27.0 14.8 45 7.7 SE 11 15 6 8 1010.2 1010.1 0.0
23/04:30pm 27.6 27.1 14.9 45 7.7 SE 11 15 6 8 1010.2 1010.1 0.0
23/04:00pm 27.9 26.4 13.1 40 8.7 SE 13 19 7 10 1010.1 1010.0 0.0
23/03:30pm 27.7 26.1 14.0 43 8.2 SSE 15 20 8 11 1010.3 1010.2 0.0
23/03:00pm 28.2 26.4 13.3 40 8.8 SSE 15 20 8 11 1010.3 1010.2 0.0
23/02:30pm 28.3 26.1 12.2 37 9.4 SE 15 20 8 11 1010.6 1010.5 0.0
23/02:00pm 28.1 26.3 12.0 36 9.3 SE 13 19 7 10 1011.1 1011.0 0.0
23/01:30pm 27.8 26.4 14.4 43 8.1 SSE 15 20 8 11 1011.9 1011.8 0.0
23/01:00pm 27.8 26.2 15.1 46 7.7 SE 17 22 9 12 1012.4 1012.3 0.0
23/12:30pm 27.0 25.9 16.3 52 6.6 SE 17 22 9 12 1013.0 1012.9 0.0
23/12:00pm 25.9 25.8 17.8 61 5.1 SE 15 24 8 13 1013.5 1013.4 0.0
23/11:30am 25.6 25.0 16.7 58 5.5 SE 15 22 8 12 1013.6 1013.5 0.0
23/11:00am 25.0 24.3 16.4 59 5.3 SE 15 22 8 12 1013.7 1013.6 0.0
23/10:30am 25.1 24.6 16.8 60 5.1 SE 15 20 8 11 1013.8 1013.7 0.0
23/10:00am 24.7 23.6 16.4 60 5.1 SE 17 24 9 13 1013.8 1013.7 0.0
23/09:30am 24.5 24.0 17.0 63 4.6 SSE 15 22 8 12 1013.9 1013.8 0.0
23/09:00am 24.1 23.9 16.6 63 4.6 SSE 13 20 7 11 1013.6 1013.5 0.0
23/08:30am 23.2 23.6 17.2 69 3.7 SSE 11 17 6 9 1013.3 1013.2 0.0
23/08:00am 21.8 22.6 17.4 76 2.7 SSE 9 15 5 8 1013.0 1012.9 0.0
23/07:30am 20.2 21.3 17.2 83 1.8 SSE 7 11 4 6 1012.7 1012.6 0.0
23/07:00am 20.1 21.3 16.9 82 1.9 SSE 6 9 3 5 1012.5 1012.4 0.0
23/06:30am 20.2 21.5 17.6 85 1.6 SSE 7 13 4 7 1012.4 1012.3 0.0
23/06:00am 20.0 21.1 18.0 88 1.2 S 9 13 5 7 1012.3 1012.2 0.0
23/05:30am 20.2 21.9 18.0 87 1.4 SSE 6 9 3 5 1012.1 1012.0 0.0
23/05:00am 20.7 21.8 17.9 84 1.7 S 9 13 5 7 1012.2 1012.1 0.0
23/04:30am 19.5 20.2 16.0 80 2.1 S 7 9 4 5 1012.2 1012.1 0.0
23/04:00am 19.6 20.5 16.1 80 2.1 SSE 6 7 3 4 1012.3 1012.2 0.0
23/03:30am 19.3 19.9 15.2 77 2.4 SSW 6 9 3 5 1012.3 1012.2 0.0
23/03:00am 19.3 21.1 15.4 78 2.3 CALM 0 0 0 0 1012.4 1012.3 0.0
23/02:30am 19.5 21.3 15.4 77 2.4 CALM 0 0 0 0 1012.5 1012.4 0.0
23/02:00am 19.4 21.0 14.9 75 2.6 CALM 0 0 0 0 1012.8 1012.7 0.0
23/01:30am 19.8 20.8 14.2 70 3.2 ENE 2 7 1 4 1013.0 1012.9 0.0
23/01:00am 19.5 20.7 15.0 75 2.6 SE 2 11 1 6 1013.2 1013.1 0.0
23/12:30am 20.5 21.0 15.1 71 3.2 SSE 6 9 3 5 1013.3 1013.2 0.0
23/12:00am 20.5 21.8 15.1 71 3.2 ESE 2 9 1 5 1013.4 1013.3 0.0
 
Date/Time
EST
Temp
°C
App
Temp
°C
Dew
Point
°C
Rel
Hum
%
Delta-T
°C
Wind Press
QNH
hPa
Press
MSL
hPa
Rain since
9am
mm
Dir  Spd
km/h
Gust
km/h
Spd
kts
Gust
kts
22/11:30pm 20.7 20.9 14.1 66 3.8 SE 6 7 3 4 1013.5 1013.4 0.0
22/11:00pm 21.2 20.9 14.4 65 4.0 E 9 13 5 7 1013.6 1013.5 0.0
22/10:30pm 21.2 20.8 15.1 68 3.6 ENE 11 19 6 10 1013.4 1013.3 0.0
22/10:00pm 21.2 21.4 14.8 67 3.8 ENE 7 9 4 5 1013.2 1013.1 0.0
22/09:30pm 21.6 21.7 14.5 64 4.2 E 7 7 4 4 1013.0 1012.9 0.0
22/09:00pm 22.0 21.3 14.4 62 4.5 ENE 11 11 6 6 1012.9 1012.8 0.0
22/08:30pm 22.1 21.4 14.2 61 4.6 ENE 11 13 6 7 1012.6 1012.5 0.0
22/08:00pm 22.4 21.6 14.0 59 4.9 ENE 11 13 6 7 1012.3 1012.2 0.0
22/07:30pm 23.0 22.5 13.8 56 5.4 ENE 9 13 5 7 1012.0 1011.9 0.0
22/07:00pm 23.5 23.0 13.7 54 5.7 ENE 9 13 5 7 1011.7 1011.6 0.0
22/06:30pm 24.8 23.7 13.0 47 6.8 E 11 13 6 7 1011.6 1011.5 0.0
22/06:00pm 26.0 24.6 12.1 42 8.0 ESE 11 15 6 8 1011.4 1011.3 0.0
22/05:30pm 26.8 25.1 12.5 41 8.3 SE 13 17 7 9 1011.3 1011.2 0.0
22/05:00pm 27.4 26.0 12.2 39 8.8 SE 11 17 6 9 1011.2 1011.1 0.0
22/04:30pm 27.1 24.5 10.8 36 9.2 SE 15 20 8 11 1011.2 1011.1 0.0
22/04:00pm 27.0 24.5 11.1 37 9.0 SE 15 20 8 11 1011.3 1011.2 0.0
22/03:30pm 26.3 23.8 11.2 38 8.6 SE 15 20 8 11 1011.4 1011.3 0.0
22/03:00pm 25.7 23.5 13.2 46 7.3 SE 17 20 9 11 1011.6 1011.5 0.0
22/02:30pm 25.7 22.8 12.9 45 7.4 SE 20 30 11 16 1011.9 1011.8 0.0
22/02:00pm 25.7 24.0 13.5 46 7.2 SE 15 22 8 12 1012.1 1012.0 0.0
22/01:30pm 25.6 25.0 16.7 58 5.5 SE 15 22 8 12 1012.6 1012.5 0.0
22/01:00pm 24.9 24.4 17.9 65 4.4 SE 17 24 9 13 1013.1 1013.0 0.0
22/12:30pm 25.1 24.7 18.1 65 4.4 SE 17 24 9 13 1013.6 1013.5 0.0
22/12:00pm 24.5 24.1 17.2 63 4.5 SE 15 24 8 13 1014.2 1014.1 0.0
22/11:30am 24.1 23.4 17.4 66 4.2 SSE 17 24 9 13 1014.3 1014.2 0.0
22/11:00am 23.9 23.0 16.9 65 4.3 SSE 17 24 9 13 1014.6 1014.5 0.0
22/10:30am 23.8 22.6 17.1 66 4.1 SSE 19 28 10 15 1014.8 1014.7 0.0
22/10:00am 24.2 22.9 16.7 63 4.6 SE 19 28 10 15 1015.0 1014.9 0.0
22/09:30am 23.7 22.1 16.0 62 4.7 SE 19 28 10 15 1014.7 1014.6 0.0
22/09:00am 23.7 22.5 16.0 62 4.7 SE 17 24 9 13 1014.4 1014.3 0.0
22/08:30am 23.0 21.4 15.1 61 4.7 SE 17 24 9 13 1014.2 1014.1 0.0

Other Formats:

Comma delimited format used in spreadsheet applications
http://www.bom.gov.au/fwo/IDQ60801/IDQ60801.94254.axf

JavaScript Object Notation format (JSON) in row-major order
http://www.bom.gov.au/fwo/IDQ60801/IDQ60801.94254.json